Terminal Aerodrome Forecast
Issued by NWS Caribou, ME

Home | Current Version | Previous Version | Text Only | Print | Product List | Glossary On
Versions: 1 2 3 4 5 6 7 8 9 10 11 12 13 14 15
000
FTUS41 KCAR 271449 AAA
TAFBGR
TAF AMD
KBGR 271449Z 2715/2812 20005KT P6SM VCSH SCT005 BKN035
      TEMPO 2715/2716 BKN005
     FM271600 21009KT P6SM VCSH OVC025
     FM280200 19005KT P6SM BKN025
     FM280600 VRB03KT 2SM BR BKN003=

USA.gov is the U.S. government's official web portal to all federal, state and local government web resources and services.